sensor_id;sensor_type;location;lat;lon;timestamp;pressure;altitude;pressure_sealevel;temperature;humidity
36834;BME280;48003;52.084;5.224;2023-05-02T00:02:32;102069.0;;;13.87;76.44
36834;BME280;48003;52.084;5.224;2023-05-02T00:04:08;102071.0;;;13.94;76.25
36834;BME280;48003;52.084;5.224;2023-05-02T00:05:44;102065.0;;;13.84;76.52
36834;BME280;48003;52.084;5.224;2023-05-02T00:08:57;102067.0;;;13.86;76.55
36834;BME280;48003;52.084;5.224;2023-05-02T00:10:33;102068.0;;;13.86;76.55
36834;BME280;48003;52.084;5.224;2023-05-02T00:12:09;102068.0;;;13.9;76.5
36834;BME280;48003;52.084;5.224;2023-05-02T00:15:21;102069.0;;;13.8;76.92
36834;BME280;48003;52.084;5.224;2023-05-02T00:16:57;102064.0;;;13.85;76.81
36834;BME280;48003;52.084;5.224;2023-05-02T00:18:34;102067.0;;;13.95;76.61
36834;BME280;48003;52.084;5.224;2023-05-02T00:20:10;102061.0;;;14.04;76.33
36834;BME280;48003;52.084;5.224;2023-05-02T00:23:23;102062.0;;;13.93;76.72
36834;BME280;48003;52.084;5.224;2023-05-02T00:25:00;102067.0;;;13.97;76.8
36834;BME280;48003;52.084;5.224;2023-05-02T00:29:49;102073.0;;;13.93;77.05
36834;BME280;48003;52.084;5.224;2023-05-02T00:31:25;102077.0;;;13.95;77.11
36834;BME280;48003;52.084;5.224;2023-05-02T00:33:01;102075.0;;;14.07;76.69
36834;BME280;48003;52.084;5.224;2023-05-02T00:36:14;102069.0;;;14.15;76.48
36834;BME280;48003;52.084;5.224;2023-05-02T00:37:51;102074.0;;;14.12;76.55
36834;BME280;48003;52.084;5.224;2023-05-02T00:39:27;102066.0;;;14.16;76.44
36834;BME280;48003;52.084;5.224;2023-05-02T00:41:03;102073.0;;;14.21;76.34
36834;BME280;48003;52.084;5.224;2023-05-02T00:44:15;102070.0;;;14.29;75.99
36834;BME280;48003;52.084;5.224;2023-05-02T00:45:51;102063.0;;;14.3;75.8
36834;BME280;48003;52.084;5.224;2023-05-02T00:47:28;102069.0;;;14.26;75.8
36834;BME280;48003;52.084;5.224;2023-05-02T00:50:41;102068.0;;;14.14;76.13
36834;BME280;48003;52.084;5.224;2023-05-02T00:52:18;102076.0;;;14.15;76.11
36834;BME280;48003;52.084;5.224;2023-05-02T00:53:55;102084.0;;;14.12;76.11
36834;BME280;48003;52.084;5.224;2023-05-02T00:57:07;102087.0;;;14.11;75.97
36834;BME280;48003;52.084;5.224;2023-05-02T00:58:44;102088.0;;;14.07;76.03
36834;BME280;48003;52.084;5.224;2023-05-02T01:00:28;102094.0;;;14.04;76.19
36834;BME280;48003;52.084;5.224;2023-05-02T01:02:27;102096.0;;;14.05;76.13
36834;BME280;48003;52.084;5.224;2023-05-02T01:04:12;102094.0;;;14.11;75.97
36834;BME280;48003;52.084;5.224;2023-05-02T01:08:05;102092.0;;;14.03;76.13
36834;BME280;48003;52.084;5.224;2023-05-02T01:09:53;102089.0;;;14.07;76.11
36834;BME280;48003;52.084;5.224;2023-05-02T01:11:41;102091.0;;;14.11;75.97
36834;BME280;48003;52.084;5.224;2023-05-02T01:13:31;102094.0;;;14.04;76.3
36834;BME280;48003;52.084;5.224;2023-05-02T01:15:14;102086.0;;;14.18;76.0
36834;BME280;48003;52.084;5.224;2023-05-02T01:16:51;102088.0;;;14.25;75.69
36834;BME280;48003;52.084;5.224;2023-05-02T01:20:13;102092.0;;;14.28;75.56
36834;BME280;48003;52.084;5.224;2023-05-02T01:21:52;102096.0;;;14.25;75.72
36834;BME280;48003;52.084;5.224;2023-05-02T01:23:37;102097.0;;;14.22;75.83
36834;BME280;48003;52.084;5.224;2023-05-02T01:25:26;102105.0;;;14.13;76.28
36834;BME280;48003;52.084;5.224;2023-05-02T01:27:10;102109.0;;;14.08;76.56
36834;BME280;48003;52.084;5.224;2023-05-02T01:30:35;102110.0;;;13.96;76.37
36834;BME280;48003;52.084;5.224;2023-05-02T01:32:14;102109.0;;;13.94;76.39
36834;BME280;48003;52.084;5.224;2023-05-02T01:33:51;102111.0;;;13.87;76.44
36834;BME280;48003;52.084;5.224;2023-05-02T01:35:29;102117.0;;;13.85;76.49
36834;BME280;48003;52.084;5.224;2023-05-02T01:38:49;102121.0;;;13.75;76.37
36834;BME280;48003;52.084;5.224;2023-05-02T01:40:26;102121.0;;;13.65;75.91
36834;BME280;48003;52.084;5.224;2023-05-02T01:42:04;102130.0;;;13.6;75.62
36834;BME280;48003;52.084;5.224;2023-05-02T01:45:18;102132.0;;;13.56;75.41
36834;BME280;48003;52.084;5.224;2023-05-02T01:46:56;102133.0;;;13.62;74.84
36834;BME280;48003;52.084;5.224;2023-05-02T01:48:35;102132.0;;;13.65;74.47
36834;BME280;48003;52.084;5.224;2023-05-02T01:50:13;102143.0;;;13.54;74.05
36834;BME280;48003;52.084;5.224;2023-05-02T01:53:32;102144.0;;;13.48;74.05
36834;BME280;48003;52.084;5.224;2023-05-02T01:55:12;102142.0;;;13.5;74.08
36834;BME280;48003;52.084;5.224;2023-05-02T01:56:50;102145.0;;;13.41;74.41
36834;BME280;48003;52.084;5.224;2023-05-02T01:58:28;102144.0;;;13.38;74.5
36834;BME280;48003;52.084;5.224;2023-05-02T02:01:47;102143.0;;;13.51;74.08
36834;BME280;48003;52.084;5.224;2023-05-02T02:03:25;102147.0;;;13.6;73.72
36834;BME280;48003;52.084;5.224;2023-05-02T02:05:04;102148.0;;;13.56;73.62
36834;BME280;48003;52.084;5.224;2023-05-02T02:08:34;102151.0;;;13.61;73.22
36834;BME280;48003;52.084;5.224;2023-05-02T02:10:10;102149.0;;;13.54;73.19
36834;BME280;48003;52.084;5.224;2023-05-02T02:11:51;102155.0;;;13.63;72.91
36834;BME280;48003;52.084;5.224;2023-05-02T02:13:30;102159.0;;;13.58;72.55
36834;BME280;48003;52.084;5.224;2023-05-02T02:15:17;102161.0;;;13.62;72.08
36834;BME280;48003;52.084;5.224;2023-05-02T02:18:38;102168.0;;;13.66;71.77
36834;BME280;48003;52.084;5.224;2023-05-02T02:20:14;102173.0;;;13.48;71.5
36834;BME280;48003;52.084;5.224;2023-05-02T02:21:53;102177.0;;;13.36;70.8
36834;BME280;48003;52.084;5.224;2023-05-02T02:25:11;102180.0;;;13.26;70.69
36834;BME280;48003;52.084;5.224;2023-05-02T02:26:50;102180.0;;;13.25;70.38
36834;BME280;48003;52.084;5.224;2023-05-02T02:28:26;102195.0;;;13.09;70.27
36834;BME280;48003;52.084;5.224;2023-05-02T02:30:03;102194.0;;;13.05;70.12
36834;BME280;48003;52.084;5.224;2023-05-02T02:33:16;102196.0;;;13.12;69.83
36834;BME280;48003;52.084;5.224;2023-05-02T02:34:52;102201.0;;;13.15;69.56
36834;BME280;48003;52.084;5.224;2023-05-02T02:36:33;102202.0;;;13.11;69.27
36834;BME280;48003;52.084;5.224;2023-05-02T02:38:18;102202.0;;;13.0;68.86
36834;BME280;48003;52.084;5.224;2023-05-02T02:41:49;102207.0;;;13.0;68.69
36834;BME280;48003;52.084;5.224;2023-05-02T02:43:35;102205.0;;;13.03;68.61
36834;BME280;48003;52.084;5.224;2023-05-02T02:45:23;102205.0;;;13.06;68.44
36834;BME280;48003;52.084;5.224;2023-05-02T02:47:09;102207.0;;;13.05;68.36
36834;BME280;48003;52.084;5.224;2023-05-02T02:49:11;102207.0;;;13.13;68.12
36834;BME280;48003;52.084;5.224;2023-05-02T02:50:58;102209.0;;;13.19;67.85
36834;BME280;48003;52.084;5.224;2023-05-02T02:54:31;102209.0;;;13.18;67.72
36834;BME280;48003;52.084;5.224;2023-05-02T02:56:14;102216.0;;;13.2;67.67
36834;BME280;48003;52.084;5.224;2023-05-02T02:57:57;102219.0;;;13.29;67.55
36834;BME280;48003;52.084;5.224;2023-05-02T02:59:38;102216.0;;;13.26;67.62
36834;BME280;48003;52.084;5.224;2023-05-02T03:01:23;102222.0;;;13.33;67.3
36834;BME280;48003;52.084;5.224;2023-05-02T03:04:40;102224.0;;;13.27;67.44
36834;BME280;48003;52.084;5.224;2023-05-02T03:06:17;102226.0;;;13.25;67.56
36834;BME280;48003;52.084;5.224;2023-05-02T03:11:15;102233.0;;;13.04;68.22
36834;BME280;48003;52.084;5.224;2023-05-02T03:12:51;102241.0;;;13.06;68.22
36834;BME280;48003;52.084;5.224;2023-05-02T03:14:27;102237.0;;;13.12;68.24
36834;BME280;48003;52.084;5.224;2023-05-02T03:16:36;102245.0;;;12.96;68.2
36834;BME280;48003;52.084;5.224;2023-05-02T03:18:23;102242.0;;;12.93;68.31
36834;BME280;48003;52.084;5.224;2023-05-02T03:21:35;102243.0;;;12.98;68.17
36834;BME280;48003;52.084;5.224;2023-05-02T03:23:11;102250.0;;;12.98;68.14
36834;BME280;48003;52.084;5.224;2023-05-02T03:24:47;102255.0;;;13.03;67.91
36834;BME280;48003;52.084;5.224;2023-05-02T03:26:24;102255.0;;;12.85;68.14
36834;BME280;48003;52.084;5.224;2023-05-02T03:29:36;102253.0;;;12.96;67.88
36834;BME280;48003;52.084;5.224;2023-05-02T03:31:12;102255.0;;;12.81;68.09
36834;BME280;48003;52.084;5.224;2023-05-02T03:32:50;102260.0;;;12.84;67.98
36834;BME280;48003;52.084;5.224;2023-05-02T03:36:03;102264.0;;;12.85;67.97
36834;BME280;48003;52.084;5.224;2023-05-02T03:37:39;102267.0;;;12.79;68.05
36834;BME280;48003;52.084;5.224;2023-05-02T03:39:15;102270.0;;;12.72;68.08
36834;BME280;48003;52.084;5.224;2023-05-02T03:42:27;102276.0;;;12.79;67.88
36834;BME280;48003;52.084;5.224;2023-05-02T03:44:04;102276.0;;;12.8;67.94
36834;BME280;48003;52.084;5.224;2023-05-02T03:45:40;102276.0;;;12.73;67.94
36834;BME280;48003;52.084;5.224;2023-05-02T03:47:16;102276.0;;;12.77;67.86
36834;BME280;48003;52.084;5.224;2023-05-02T03:50:28;102277.0;;;12.7;67.83
36834;BME280;48003;52.084;5.224;2023-05-02T03:52:04;102275.0;;;12.62;67.8
36834;BME280;48003;52.084;5.224;2023-05-02T03:53:40;102280.0;;;12.66;67.39
36834;BME280;48003;52.084;5.224;2023-05-02T03:56:53;102277.0;;;12.54;67.19
36834;BME280;48003;52.084;5.224;2023-05-02T03:58:29;102273.0;;;12.46;67.08
36834;BME280;48003;52.084;5.224;2023-05-02T04:00:06;102277.0;;;12.56;66.69
36834;BME280;48003;52.084;5.224;2023-05-02T04:03:20;102273.0;;;12.5;66.72
36834;BME280;48003;52.084;5.224;2023-05-02T04:04:57;102280.0;;;12.5;66.75
36834;BME280;48003;52.084;5.224;2023-05-02T04:06:33;102283.0;;;12.55;66.69
36834;BME280;48003;52.084;5.224;2023-05-02T04:08:08;102291.0;;;12.53;66.63
36834;BME280;48003;52.084;5.224;2023-05-02T04:11:21;102290.0;;;12.52;66.58
36834;BME280;48003;52.084;5.224;2023-05-02T04:12:57;102293.0;;;12.54;66.45
36834;BME280;48003;52.084;5.224;2023-05-02T04:14:33;102296.0;;;12.47;66.47
36834;BME280;48003;52.084;5.224;2023-05-02T04:17:45;102296.0;;;12.42;66.39
36834;BME280;48003;52.084;5.224;2023-05-02T04:19:22;102296.0;;;12.45;66.11
36834;BME280;48003;52.084;5.224;2023-05-02T04:20:58;102299.0;;;12.51;65.98
36834;BME280;48003;52.084;5.224;2023-05-02T04:24:10;102297.0;;;12.27;66.47
36834;BME280;48003;52.084;5.224;2023-05-02T04:25:51;102302.0;;;12.3;66.5
36834;BME280;48003;52.084;5.224;2023-05-02T04:27:28;102310.0;;;12.22;66.83
36834;BME280;48003;52.084;5.224;2023-05-02T04:29:04;102313.0;;;12.19;66.91
36834;BME280;48003;52.084;5.224;2023-05-02T04:32:16;102321.0;;;12.08;67.39
36834;BME280;48003;52.084;5.224;2023-05-02T04:33:52;102324.0;;;12.11;67.48
36834;BME280;48003;52.084;5.224;2023-05-02T04:35:29;102327.0;;;12.12;67.55
36834;BME280;48003;52.084;5.224;2023-05-02T04:38:41;102330.0;;;12.22;67.41
36834;BME280;48003;52.084;5.224;2023-05-02T04:40:17;102331.0;;;12.22;67.47
36834;BME280;48003;52.084;5.224;2023-05-02T04:41:53;102342.0;;;12.17;67.83
36834;BME280;48003;52.084;5.224;2023-05-02T04:45:06;102339.0;;;12.19;67.83
36834;BME280;48003;52.084;5.224;2023-05-02T04:46:43;102350.0;;;12.12;68.14
36834;BME280;48003;52.084;5.224;2023-05-02T04:48:19;102348.0;;;12.21;68.08
36834;BME280;48003;52.084;5.224;2023-05-02T04:51:31;102355.0;;;12.21;68.11
36834;BME280;48003;52.084;5.224;2023-05-02T04:53:07;102357.0;;;12.24;68.13
36834;BME280;48003;52.084;5.224;2023-05-02T04:54:43;102356.0;;;12.22;68.22
36834;BME280;48003;52.084;5.224;2023-05-02T04:56:20;102362.0;;;12.28;68.3
36834;BME280;48003;52.084;5.224;2023-05-02T04:59:33;102361.0;;;12.25;68.47
36834;BME280;48003;52.084;5.224;2023-05-02T05:01:12;102366.0;;;12.26;68.58
36834;BME280;48003;52.084;5.224;2023-05-02T05:02:48;102360.0;;;12.38;68.28
36834;BME280;48003;52.084;5.224;2023-05-02T05:06:00;102365.0;;;12.41;68.28
36834;BME280;48003;52.084;5.224;2023-05-02T05:07:37;102370.0;;;12.34;68.28
36834;BME280;48003;52.084;5.224;2023-05-02T05:09:13;102370.0;;;12.4;68.12
36834;BME280;48003;52.084;5.224;2023-05-02T05:12:26;102375.0;;;12.41;68.05
36834;BME280;48003;52.084;5.224;2023-05-02T05:14:02;102378.0;;;12.36;67.89
36834;BME280;48003;52.084;5.224;2023-05-02T05:15:39;102380.0;;;12.51;67.38
36834;BME280;48003;52.084;5.224;2023-05-02T05:17:15;102381.0;;;12.62;66.89
36834;BME280;48003;52.084;5.224;2023-05-02T05:20:28;102377.0;;;12.59;66.47
36834;BME280;48003;52.084;5.224;2023-05-02T05:22:04;102383.0;;;12.64;66.14
36834;BME280;48003;52.084;5.224;2023-05-02T05:23:40;102388.0;;;12.62;65.99
36834;BME280;48003;52.084;5.224;2023-05-02T05:26:53;102393.0;;;12.69;65.78
36834;BME280;48003;52.084;5.224;2023-05-02T05:28:29;102397.0;;;12.8;65.77
36834;BME280;48003;52.084;5.224;2023-05-02T05:30:06;102395.0;;;12.89;65.75
36834;BME280;48003;52.084;5.224;2023-05-02T05:33:18;102395.0;;;12.94;66.08
36834;BME280;48003;52.084;5.224;2023-05-02T05:34:55;102400.0;;;12.97;66.1
36834;BME280;48003;52.084;5.224;2023-05-02T05:36:31;102399.0;;;13.02;65.72
36834;BME280;48003;52.084;5.224;2023-05-02T05:38:07;102399.0;;;13.1;65.3
36834;BME280;48003;52.084;5.224;2023-05-02T05:41:21;102405.0;;;13.12;65.41
36834;BME280;48003;52.084;5.224;2023-05-02T05:44:33;102415.00000000001;;;13.07;64.7
36834;BME280;48003;52.084;5.224;2023-05-02T05:47:45;102420.0;;;13.02;64.08
36834;BME280;48003;52.084;5.224;2023-05-02T05:49:21;102425.0;;;13.03;63.95
36834;BME280;48003;52.084;5.224;2023-05-02T05:50:57;102424.0;;;13.01;64.12
36834;BME280;48003;52.084;5.224;2023-05-02T05:54:15;102434.99999999999;;;12.96;63.5
36834;BME280;48003;52.084;5.224;2023-05-02T05:55:52;102436.99999999999;;;12.99;63.45
36834;BME280;48003;52.084;5.224;2023-05-02T05:57:28;102442.0;;;12.89;62.57
36834;BME280;48003;52.084;5.224;2023-05-02T05:59:04;102446.0;;;12.78;62.1
36834;BME280;48003;52.084;5.224;2023-05-02T06:02:17;102451.0;;;12.73;62.45
36834;BME280;48003;52.084;5.224;2023-05-02T06:03:53;102454.0;;;12.75;62.43
36834;BME280;48003;52.084;5.224;2023-05-02T06:05:29;102456.0;;;12.58;62.62
36834;BME280;48003;52.084;5.224;2023-05-02T06:08:42;102465.00000000001;;;12.64;62.67
36834;BME280;48003;52.084;5.224;2023-05-02T06:10:19;102464.00000000001;;;12.59;62.56
36834;BME280;48003;52.084;5.224;2023-05-02T06:11:55;102470.0;;;12.66;62.63
36834;BME280;48003;52.084;5.224;2023-05-02T06:15:07;102474.0;;;12.69;62.99
36834;BME280;48003;52.084;5.224;2023-05-02T06:16:43;102477.0;;;12.69;63.02
36834;BME280;48003;52.084;5.224;2023-05-02T06:18:19;102480.0;;;12.79;62.89
36834;BME280;48003;52.084;5.224;2023-05-02T06:19:56;102483.0;;;12.9;62.7
36834;BME280;48003;52.084;5.224;2023-05-02T06:23:08;102489.00000000001;;;12.9;62.18
36834;BME280;48003;52.084;5.224;2023-05-02T06:24:44;102486.99999999999;;;12.78;61.65
36834;BME280;48003;52.084;5.224;2023-05-02T06:26:20;102483.0;;;12.91;61.14
36834;BME280;48003;52.084;5.224;2023-05-02T06:29:33;102484.99999999999;;;12.93;61.15
36834;BME280;48003;52.084;5.224;2023-05-02T06:31:09;102493.0;;;12.99;61.04
36834;BME280;48003;52.084;5.224;2023-05-02T06:32:45;102491.00000000001;;;13.07;61.04
36834;BME280;48003;52.084;5.224;2023-05-02T06:35:58;102499.0;;;12.93;59.99
36834;BME280;48003;52.084;5.224;2023-05-02T06:37:33;102502.0;;;13.06;59.99
36834;BME280;48003;52.084;5.224;2023-05-02T06:39:10;102498.0;;;13.17;59.83
36834;BME280;48003;52.084;5.224;2023-05-02T06:42:23;102502.0;;;13.1;59.34
36834;BME280;48003;52.084;5.224;2023-05-02T06:43:59;102500.0;;;13.2;58.94
36834;BME280;48003;52.084;5.224;2023-05-02T06:45:35;102508.0;;;13.23;58.93
36834;BME280;48003;52.084;5.224;2023-05-02T06:47:11;102504.0;;;13.33;58.74
36834;BME280;48003;52.084;5.224;2023-05-02T06:50:24;102516.00000000001;;;13.3;58.1
36834;BME280;48003;52.084;5.224;2023-05-02T06:52:00;102522.0;;;13.38;57.78
36834;BME280;48003;52.084;5.224;2023-05-02T06:56:48;102541.00000000001;;;13.32;57.52
36834;BME280;48003;52.084;5.224;2023-05-02T06:58:25;102538.00000000001;;;13.37;57.74
36834;BME280;48003;52.084;5.224;2023-05-02T07:00:01;102538.00000000001;;;13.38;58.13
36834;BME280;48003;52.084;5.224;2023-05-02T07:03:13;102545.0;;;13.33;57.52
36834;BME280;48003;52.084;5.224;2023-05-02T07:04:49;102549.0;;;13.36;57.93
36834;BME280;48003;52.084;5.224;2023-05-02T07:06:25;102553.0;;;13.29;57.85
36834;BME280;48003;52.084;5.224;2023-05-02T07:09:39;102559.99999999999;;;13.27;57.85
36834;BME280;48003;52.084;5.224;2023-05-02T07:11:15;102559.99999999999;;;13.09;57.98
36834;BME280;48003;52.084;5.224;2023-05-02T07:12:51;102565.00000000001;;;13.11;58.25
36834;BME280;48003;52.084;5.224;2023-05-02T07:14:27;102559.99999999999;;;13.05;58.67
36834;BME280;48003;52.084;5.224;2023-05-02T07:17:43;102568.0;;;13.15;58.83
36834;BME280;48003;52.084;5.224;2023-05-02T07:19:19;102571.0;;;13.2;59.0
36834;BME280;48003;52.084;5.224;2023-05-02T07:20:55;102567.0;;;13.2;58.97
36834;BME280;48003;52.084;5.224;2023-05-02T07:24:07;102571.0;;;13.32;58.95
36834;BME280;48003;52.084;5.224;2023-05-02T07:25:43;102576.0;;;13.24;58.11
36834;BME280;48003;52.084;5.224;2023-05-02T07:27:20;102575.0;;;13.12;58.5
36834;BME280;48003;52.084;5.224;2023-05-02T07:30:32;102583.0;;;12.98;59.18
36834;BME280;48003;52.084;5.224;2023-05-02T07:32:08;102586.99999999999;;;13.03;59.3
36834;BME280;48003;52.084;5.224;2023-05-02T07:33:44;102586.99999999999;;;13.12;59.18
36834;BME280;48003;52.084;5.224;2023-05-02T07:35:20;102590.00000000001;;;13.11;59.27
36834;BME280;48003;52.084;5.224;2023-05-02T07:38:34;102593.0;;;12.99;58.91
36834;BME280;48003;52.084;5.224;2023-05-02T07:40:10;102601.0;;;12.91;58.95
36834;BME280;48003;52.084;5.224;2023-05-02T07:41:46;102603.0;;;12.98;59.16
36834;BME280;48003;52.084;5.224;2023-05-02T07:44:58;102604.0;;;13.09;59.0
36834;BME280;48003;52.084;5.224;2023-05-02T07:46:34;102613.00000000001;;;13.1;59.41
36834;BME280;48003;52.084;5.224;2023-05-02T07:48:11;102608.0;;;13.12;59.23
36834;BME280;48003;52.084;5.224;2023-05-02T07:51:25;102609.99999999999;;;12.96;58.75
36834;BME280;48003;52.084;5.224;2023-05-02T07:53:01;102608.0;;;13.09;58.61
36834;BME280;48003;52.084;5.224;2023-05-02T07:54:37;102606.0;;;13.1;58.38
36834;BME280;48003;52.084;5.224;2023-05-02T07:56:14;102611.99999999999;;;13.05;58.66
36834;BME280;48003;52.084;5.224;2023-05-02T07:59:26;102616.00000000001;;;13.16;58.22
36834;BME280;48003;52.084;5.224;2023-05-02T08:01:02;102621.0;;;13.12;58.0
36834;BME280;48003;52.084;5.224;2023-05-02T08:02:40;102619.0;;;13.15;57.93
36834;BME280;48003;52.084;5.224;2023-05-02T08:05:53;102623.0;;;13.15;58.12
36834;BME280;48003;52.084;5.224;2023-05-02T08:07:31;102623.0;;;13.02;57.58
36834;BME280;48003;52.084;5.224;2023-05-02T08:09:07;102626.0;;;13.24;57.45
36834;BME280;48003;52.084;5.224;2023-05-02T08:12:19;102624.0;;;13.39;57.96
36834;BME280;48003;52.084;5.224;2023-05-02T08:13:56;102623.0;;;13.4;57.41
36834;BME280;48003;52.084;5.224;2023-05-02T08:15:32;102628.0;;;13.41;57.29
36834;BME280;48003;52.084;5.224;2023-05-02T08:17:08;102632.0;;;13.52;56.48
36834;BME280;48003;52.084;5.224;2023-05-02T08:20:20;102631.0;;;13.58;56.11
36834;BME280;48003;52.084;5.224;2023-05-02T08:21:57;102631.0;;;13.65;56.21
36834;BME280;48003;52.084;5.224;2023-05-02T08:23:34;102633.0;;;13.71;56.36
36834;BME280;48003;52.084;5.224;2023-05-02T08:26:45;102633.0;;;13.8;56.38
36834;BME280;48003;52.084;5.224;2023-05-02T08:28:21;102636.99999999999;;;13.84;56.32
36834;BME280;48003;52.084;5.224;2023-05-02T08:29:57;102645.0;;;13.88;56.01
36834;BME280;48003;52.084;5.224;2023-05-02T08:33:10;102642.0;;;13.9;55.59
36834;BME280;48003;52.084;5.224;2023-05-02T08:34:46;102646.0;;;13.88;54.82
36834;BME280;48003;52.084;5.224;2023-05-02T08:36:23;102656.0;;;13.79;54.58
36834;BME280;48003;52.084;5.224;2023-05-02T08:39:35;102658.99999999999;;;13.76;53.98
36834;BME280;48003;52.084;5.224;2023-05-02T08:41:12;102658.99999999999;;;13.75;54.45
36834;BME280;48003;52.084;5.224;2023-05-02T08:42:50;102666.00000000001;;;13.76;54.39
36834;BME280;48003;52.084;5.224;2023-05-02T08:44:27;102664.00000000001;;;13.71;53.96
36834;BME280;48003;52.084;5.224;2023-05-02T08:47:41;102668.0;;;13.77;54.27
36834;BME280;48003;52.084;5.224;2023-05-02T08:49:18;102667.0;;;13.77;53.84
36834;BME280;48003;52.084;5.224;2023-05-02T08:50:56;102665.00000000001;;;13.78;54.37
36834;BME280;48003;52.084;5.224;2023-05-02T08:54:15;102663.00000000001;;;13.82;54.55
36834;BME280;48003;52.084;5.224;2023-05-02T08:55:52;102664.00000000001;;;13.98;54.35
36834;BME280;48003;52.084;5.224;2023-05-02T08:57:28;102661.99999999999;;;14.1;53.57
36834;BME280;48003;52.084;5.224;2023-05-02T08:59:05;102667.0;;;14.03;52.33
36834;BME280;48003;52.084;5.224;2023-05-02T09:02:36;102670.0;;;14.13;51.04
36834;BME280;48003;52.084;5.224;2023-05-02T09:04:29;102672.0;;;14.09;50.36
36834;BME280;48003;52.084;5.224;2023-05-02T09:06:10;102669.0;;;14.09;51.09
36834;BME280;48003;52.084;5.224;2023-05-02T09:07:49;102677.0;;;13.98;50.13
36834;BME280;48003;52.084;5.224;2023-05-02T09:09:26;102680.0;;;14.03;50.19
36834;BME280;48003;52.084;5.224;2023-05-02T09:12:39;102679.0;;;14.14;51.16
36834;BME280;48003;52.084;5.224;2023-05-02T09:14:16;102680.0;;;14.24;51.55
36834;BME280;48003;52.084;5.224;2023-05-02T09:15:56;102676.0;;;14.4;51.23
36834;BME280;48003;52.084;5.224;2023-05-02T09:19:22;102681.0;;;14.46;49.07
36834;BME280;48003;52.084;5.224;2023-05-02T09:21:04;102677.0;;;14.34;47.38
36834;BME280;48003;52.084;5.224;2023-05-02T09:22:47;102678.0;;;14.47;47.34
36834;BME280;48003;52.084;5.224;2023-05-02T09:24:24;102680.0;;;14.38;47.12
36834;BME280;48003;52.084;5.224;2023-05-02T09:27:53;102681.0;;;14.55;47.37
36834;BME280;48003;52.084;5.224;2023-05-02T09:29:31;102684.99999999999;;;14.59;47.23
36834;BME280;48003;52.084;5.224;2023-05-02T09:31:09;102692.0;;;14.67;46.75
36834;BME280;48003;52.084;5.224;2023-05-02T09:32:48;102695.0;;;14.72;46.9
36834;BME280;48003;52.084;5.224;2023-05-02T09:36:02;102695.0;;;14.65;45.55
36834;BME280;48003;52.084;5.224;2023-05-02T09:37:39;102695.0;;;14.66;46.28
36834;BME280;48003;52.084;5.224;2023-05-02T09:39:16;102708.0;;;14.6;45.87
36834;BME280;48003;52.084;5.224;2023-05-02T09:40:56;102703.0;;;14.37;45.86
36834;BME280;48003;52.084;5.224;2023-05-02T09:44:09;102702.0;;;14.36;46.14
36834;BME280;48003;52.084;5.224;2023-05-02T09:45:55;102708.99999999999;;;14.25;45.58
36834;BME280;48003;52.084;5.224;2023-05-02T09:47:32;102709.99999999999;;;14.18;45.7
36834;BME280;48003;52.084;5.224;2023-05-02T09:49:08;102718.0;;;14.18;45.99
36834;BME280;48003;52.084;5.224;2023-05-02T09:52:20;102707.0;;;14.23;46.01
36834;BME280;48003;52.084;5.224;2023-05-02T09:53:56;102706.0;;;14.39;45.64
36834;BME280;48003;52.084;5.224;2023-05-02T09:55:32;102713.00000000001;;;14.27;44.88
36834;BME280;48003;52.084;5.224;2023-05-02T09:58:45;102708.99999999999;;;14.46;45.51
36834;BME280;48003;52.084;5.224;2023-05-02T10:00:21;102704.0;;;14.62;45.27
36834;BME280;48003;52.084;5.224;2023-05-02T10:02:00;102704.0;;;14.7;43.66
36834;BME280;48003;52.084;5.224;2023-05-02T10:05:16;102700.0;;;14.81;43.79
36834;BME280;48003;52.084;5.224;2023-05-02T10:06:54;102709.99999999999;;;14.87;43.29
36834;BME280;48003;52.084;5.224;2023-05-02T10:08:32;102707.0;;;14.8;42.39
36834;BME280;48003;52.084;5.224;2023-05-02T10:10:11;102708.0;;;14.67;41.68
36834;BME280;48003;52.084;5.224;2023-05-02T10:13:31;102711.99999999999;;;14.78;42.1
36834;BME280;48003;52.084;5.224;2023-05-02T10:15:09;102717.0;;;14.86;42.36
36834;BME280;48003;52.084;5.224;2023-05-02T10:16:54;102717.0;;;14.94;42.52
36834;BME280;48003;52.084;5.224;2023-05-02T10:18:40;102722.0;;;14.89;41.95
36834;BME280;48003;52.084;5.224;2023-05-02T10:22:00;102716.00000000001;;;15.04;42.34
36834;BME280;48003;52.084;5.224;2023-05-02T10:23:41;102718.0;;;15.09;42.65
36834;BME280;48003;52.084;5.224;2023-05-02T10:25:18;102713.00000000001;;;15.29;42.41
36834;BME280;48003;52.084;5.224;2023-05-02T10:26:55;102718.0;;;15.01;41.2
36834;BME280;48003;52.084;5.224;2023-05-02T10:30:09;102719.0;;;15.03;41.21
36834;BME280;48003;52.084;5.224;2023-05-02T10:31:48;102729.0;;;14.9;41.37
36834;BME280;48003;52.084;5.224;2023-05-02T10:33:25;102726.0;;;14.99;42.56
36834;BME280;48003;52.084;5.224;2023-05-02T10:36:40;102726.0;;;15.13;42.72
36834;BME280;48003;52.084;5.224;2023-05-02T10:38:19;102727.0;;;15.3;43.07
36834;BME280;48003;52.084;5.224;2023-05-02T10:39:55;102727.0;;;15.44;42.07
36834;BME280;48003;52.084;5.224;2023-05-02T10:41:33;102731.0;;;15.3;40.97
36834;BME280;48003;52.084;5.224;2023-05-02T10:44:50;102727.0;;;15.37;40.75
36834;BME280;48003;52.084;5.224;2023-05-02T10:46:30;102733.99999999999;;;15.56;41.58
36834;BME280;48003;52.084;5.224;2023-05-02T10:48:16;102734.99999999999;;;15.65;41.15
36834;BME280;48003;52.084;5.224;2023-05-02T10:49:55;102733.0;;;15.67;40.15
36834;BME280;48003;52.084;5.224;2023-05-02T10:53:21;102725.0;;;15.78;40.39
36834;BME280;48003;52.084;5.224;2023-05-02T10:55:15;102736.99999999999;;;15.89;40.58
36834;BME280;48003;52.084;5.224;2023-05-02T10:57:02;102742.0;;;15.87;39.78
36834;BME280;48003;52.084;5.224;2023-05-02T10:58:42;102730.0;;;16.02;40.94
36834;BME280;48003;52.084;5.224;2023-05-02T11:00:20;102728.0;;;16.15;40.72
36834;BME280;48003;52.084;5.224;2023-05-02T11:04:06;102738.00000000001;;;16.23;39.46